Time;durP1;ratioP1;P1;durP2;ratioP2;P2;SDS_P1;SDS_P2;PMS_P1;PMS_P2;Temp;Humidity;BMP_temperature;BMP_pressure;BME280_temperature;BME280_humidity;BME280_pressure;Samples;Min_cycle;Max_cycle;Signal;HPM_P1;HPM_P2
2023/03/18 00:00:11;;;;;;;;;;;;;;;10.80;68.66;95905.81;5086361;28;20008;-82
2023/03/18 00:02:38;;;;;;;;;;;;;;;10.77;68.99;95913.59;5084039;28;19939;-82
2023/03/18 00:05:06;;;;;;;;;;;;;;;10.78;70.05;95916.06;5086408;28;19924;-82
2023/03/18 00:07:33;;;;;;;;;;;;;;;10.70;70.82;95921.03;5099652;28;19925;-83
2023/03/18 00:10:02;;;;;;;;;;;;;;;10.66;70.85;95933.38;5089610;28;20019;-82
2023/03/18 00:12:29;;;;;;;;;;;;;;;10.60;71.88;95930.59;5086456;28;19928;-82
2023/03/18 00:14:55;;;;;;;;;;;;;;;10.50;72.31;95935.78;5089481;28;19950;-82
2023/03/18 00:17:22;;;;;;;;;;;;;;;10.52;72.79;95938.25;5090530;28;19932;-82
2023/03/18 00:19:49;;;;;;;;;;;;;;;10.39;74.75;95949.28;5081755;28;19924;-82
2023/03/18 00:22:16;;;;;;;;;;;;;;;10.32;75.20;95952.13;5081009;28;19928;-82
2023/03/18 00:24:42;;;;;;;;;;;;;;;10.32;75.64;95949.44;5084614;28;19978;-82
2023/03/18 00:27:10;;;;;;;;;;;;;;;10.35;74.76;95948.16;5099713;28;19928;-82
2023/03/18 00:29:38;;;;;;;;;;;;;;;10.37;74.26;95946.03;5088179;28;20026;-83
2023/03/18 00:32:08;;;;;;;;;;;;;;;10.38;74.68;95945.78;5099853;28;19931;-82
2023/03/18 00:34:34;;;;;;;;;;;;;;;10.28;76.57;95950.16;5085986;28;19931;-82
2023/03/18 00:37:02;;;;;;;;;;;;;;;10.22;77.33;95943.81;5093520;28;19928;-82
2023/03/18 00:39:31;;;;;;;;;;;;;;;10.10;76.72;95960.00;5091384;28;19924;-82
2023/03/18 00:41:58;;;;;;;;;;;;;;;10.11;76.79;95952.75;5087649;28;20070;-82
2023/03/18 00:44:26;;;;;;;;;;;;;;;10.05;77.11;95948.25;5093211;28;19924;-82
2023/03/18 00:46:53;;;;;;;;;;;;;;;9.98;77.26;95951.09;5086349;28;19932;-82
2023/03/18 00:49:20;;;;;;;;;;;;;;;9.97;77.56;95951.31;5090255;28;19931;-82
2023/03/18 00:51:46;;;;;;;;;;;;;;;9.98;78.03;95937.59;5075526;28;19933;-82
2023/03/18 00:54:16;;;;;;;;;;;;;;;10.01;76.48;95936.31;5083072;28;19931;-82
2023/03/18 00:56:43;;;;;;;;;;;;;;;10.04;76.49;95936.66;5086093;28;19925;-82
2023/03/18 00:59:10;;;;;;;;;;;;;;;9.87;77.66;95936.56;5088024;28;19925;-82
2023/03/18 01:01:40;;;;;;;;;;;;;;;9.80;78.34;95946.66;5098350;28;20150;-82
2023/03/18 01:04:07;;;;;;;;;;;;;;;9.79;79.41;95938.78;5092819;28;19938;-82
2023/03/18 01:06:36;;;;;;;;;;;;;;;9.72;79.96;95940.78;5089202;28;19924;-82
2023/03/18 01:09:04;;;;;;;;;;;;;;;9.62;80.29;95938.66;5093675;28;19946;-82
2023/03/18 01:11:32;;;;;;;;;;;;;;;9.57;80.53;95935.88;5079269;28;19986;-82
2023/03/18 01:13:59;;;;;;;;;;;;;;;9.61;80.11;95937.03;5078456;28;19967;-82
2023/03/18 01:16:26;;;;;;;;;;;;;;;9.63;78.84;95940.31;5096949;28;19924;-82
2023/03/18 01:18:55;;;;;;;;;;;;;;;9.67;78.53;95928.03;5090708;28;19931;-82
2023/03/18 01:21:22;;;;;;;;;;;;;;;9.73;77.45;95929.78;5095305;28;19953;-82
2023/03/18 01:23:54;;;;;;;;;;;;;;;9.79;77.48;95928.00;5094144;28;19924;-82
2023/03/18 01:26:21;;;;;;;;;;;;;;;9.78;78.39;95921.78;5082126;28;19924;-82
2023/03/18 01:28:48;;;;;;;;;;;;;;;9.78;78.49;95942.56;5097118;28;19940;-82
2023/03/18 01:31:15;;;;;;;;;;;;;;;9.72;78.56;95949.69;5088131;28;19971;-82
2023/03/18 01:33:44;;;;;;;;;;;;;;;9.65;78.66;95940.09;5088000;28;19974;-82
2023/03/18 01:36:12;;;;;;;;;;;;;;;9.56;77.99;95934.22;5094588;28;19925;-82
2023/03/18 01:38:39;;;;;;;;;;;;;;;9.50;78.80;95935.16;5086429;28;19931;-82
2023/03/18 01:41:12;;;;;;;;;;;;;;;9.48;78.34;95926.50;5100995;28;19928;-82
2023/03/18 01:43:41;;;;;;;;;;;;;;;9.50;79.49;95935.16;5080236;28;19930;-82
2023/03/18 01:46:26;;;;;;;;;;;;;;;9.53;78.15;95934.69;5087811;28;19924;-82
2023/03/18 01:48:53;;;;;;;;;;;;;;;9.54;76.99;95936.31;5087238;28;19924;-82
2023/03/18 01:51:24;;;;;;;;;;;;;;;9.53;77.72;95934.69;5080428;28;19927;-82
2023/03/18 01:53:52;;;;;;;;;;;;;;;9.51;77.44;95934.13;5089806;28;19928;-82
2023/03/18 01:56:20;;;;;;;;;;;;;;;9.53;77.68;95932.00;5087834;28;19931;-82
2023/03/18 01:58:49;;;;;;;;;;;;;;;9.51;78.46;95934.13;5097285;28;20007;-82
2023/03/18 02:01:20;;;;;;;;;;;;;;;9.53;77.62;95920.41;5091549;28;19932;-82
2023/03/18 02:03:49;;;;;;;;;;;;;;;9.49;76.24;95917.34;5089584;28;19974;-82
2023/03/18 02:06:16;;;;;;;;;;;;;;;9.45;75.82;95921.56;5090687;28;19924;-82
2023/03/18 02:08:48;;;;;;;;;;;;;;;9.43;76.87;95921.00;5088045;28;19928;-82
2023/03/18 02:11:15;;;;;;;;;;;;;;;9.41;79.23;95920.41;5079313;28;19925;-82
2023/03/18 02:13:44;;;;;;;;;;;;;;;9.40;80.23;95918.75;5080936;28;19935;-82
2023/03/18 02:16:13;;;;;;;;;;;;;;;9.30;80.88;95907.72;5086388;28;19932;-82
2023/03/18 02:18:43;;;;;;;;;;;;;;;9.26;82.00;95914.66;5093884;28;20026;-82
2023/03/18 02:21:15;;;;;;;;;;;;;;;9.24;82.42;95908.66;5089008;28;19930;-82
2023/03/18 02:23:49;;;;;;;;;;;;;;;9.21;81.54;95903.72;5087728;28;19932;-82
2023/03/18 02:26:29;;;;;;;;;;;;;;;9.15;81.38;95901.97;5090243;28;19934;-82
2023/03/18 02:29:01;;;;;;;;;;;;;;;9.03;82.14;95907.31;5090486;27;19966;-82
2023/03/18 02:31:29;;;;;;;;;;;;;;;9.02;81.19;95911.06;5071659;28;19924;-82
2023/03/18 02:33:56;;;;;;;;;;;;;;;9.12;80.15;95905.94;5082677;28;20020;-82
2023/03/18 02:36:25;;;;;;;;;;;;;;;9.15;79.24;95893.91;5089637;28;20019;-82
2023/03/18 02:38:53;;;;;;;;;;;;;;;9.12;78.56;95889.78;5080972;28;19928;-82
2023/03/18 02:41:25;;;;;;;;;;;;;;;9.15;76.63;95888.50;5087259;28;19970;-82
2023/03/18 02:43:52;;;;;;;;;;;;;;;9.19;76.10;95905.81;5093919;28;19949;-82
2023/03/18 02:46:31;;;;;;;;;;;;;;;9.25;76.11;95894.16;5084962;28;19924;-82
2023/03/18 02:48:59;;;;;;;;;;;;;;;9.24;76.34;95885.25;5076327;28;19928;-82
2023/03/18 02:51:26;;;;;;;;;;;;;;;9.26;76.74;95882.31;5071860;28;19925;-82
2023/03/18 02:53:56;;;;;;;;;;;;;;;9.17;77.14;95889.09;5080961;28;19959;-82
2023/03/18 02:56:22;;;;;;;;;;;;;;;9.19;77.52;95885.09;5087797;28;20023;-82
2023/03/18 02:58:49;;;;;;;;;;;;;;;9.19;76.96;95893.19;5093848;28;19928;-83
2023/03/18 03:01:17;;;;;;;;;;;;;;;9.23;77.24;95885.47;5079374;28;20011;-82
2023/03/18 03:03:45;;;;;;;;;;;;;;;9.24;78.06;95889.81;5078998;28;20032;-82
2023/03/18 03:06:13;;;;;;;;;;;;;;;9.16;79.24;95879.38;5080693;28;19928;-83
2023/03/18 03:08:40;;;;;;;;;;;;;;;9.14;79.31;95889.56;5092460;28;20019;-82
2023/03/18 03:11:07;;;;;;;;;;;;;;;9.07;78.64;95877.03;5099909;28;19946;-83
2023/03/18 03:13:37;;;;;;;;;;;;;;;9.09;77.33;95877.63;5088079;28;19924;-82
2023/03/18 03:16:04;;;;;;;;;;;;;;;9.11;76.39;95875.50;5083710;28;19936;-82
2023/03/18 03:18:32;;;;;;;;;;;;;;;9.14;76.28;95876.91;5090400;28;19928;-82
2023/03/18 03:21:00;;;;;;;;;;;;;;;9.18;76.17;95883.50;5076133;28;19968;-82
2023/03/18 03:23:28;;;;;;;;;;;;;;;9.22;76.51;95889.22;5072435;28;19925;-82
2023/03/18 03:25:55;;;;;;;;;;;;;;;9.22;76.61;95873.88;5087113;28;19970;-82
2023/03/18 03:28:21;;;;;;;;;;;;;;;9.11;77.27;95883.56;5081502;28;19929;-82
2023/03/18 03:30:48;;;;;;;;;;;;;;;9.14;77.17;95889.56;5086708;28;19935;-82
2023/03/18 03:33:15;;;;;;;;;;;;;;;9.15;77.31;95883.13;5078600;28;20005;-83
2023/03/18 03:35:43;;;;;;;;;;;;;;;9.16;78.14;95888.28;5086035;28;19993;-82
2023/03/18 03:38:11;;;;;;;;;;;;;;;9.14;78.56;95892.25;5081455;28;19931;-82
2023/03/18 03:40:38;;;;;;;;;;;;;;;9.02;79.99;95892.22;5091610;28;19928;-82
2023/03/18 03:43:05;;;;;;;;;;;;;;;8.97;80.36;95884.84;5074987;28;19982;-82
2023/03/18 03:45:33;;;;;;;;;;;;;;;8.93;81.23;95891.72;5078491;28;19930;-82
2023/03/18 03:48:00;;;;;;;;;;;;;;;8.90;81.43;95900.28;5078197;28;19932;-83
2023/03/18 03:50:27;;;;;;;;;;;;;;;8.83;82.79;95896.88;5089813;28;19929;-82
2023/03/18 03:52:53;;;;;;;;;;;;;;;8.65;84.69;95899.63;5095466;28;20300;-82
2023/03/18 03:55:22;;;;;;;;;;;;;;;8.55;86.29;95888.59;5093627;28;19925;-82
2023/03/18 03:57:50;;;;;;;;;;;;;;;8.54;87.14;95895.84;5078219;28;19982;-82
2023/03/18 04:00:20;;;;;;;;;;;;;;;8.51;87.98;95903.53;5087583;28;19925;-79
2023/03/18 04:02:50;;;;;;;;;;;;;;;8.45;88.48;95901.75;5094466;28;19928;-79
2023/03/18 04:05:19;;;;;;;;;;;;;;;8.24;91.21;95903.06;5081404;28;19936;-79
2023/03/18 04:07:46;;;;;;;;;;;;;;;8.18;91.35;95902.06;5080804;28;19928;-79
2023/03/18 04:10:15;;;;;;;;;;;;;;;8.11;91.64;95908.59;5085802;28;19944;-79
2023/03/18 04:12:44;;;;;;;;;;;;;;;8.04;92.35;95903.28;5091938;28;20024;-79
2023/03/18 04:15:13;;;;;;;;;;;;;;;7.89;94.56;95909.06;5094237;28;19924;-78
2023/03/18 04:17:41;;;;;;;;;;;;;;;7.88;95.02;95906.59;5091200;28;19943;-79
2023/03/18 04:20:09;;;;;;;;;;;;;;;7.91;95.77;95903.47;5096934;28;19930;-79
2023/03/18 04:22:36;;;;;;;;;;;;;;;7.92;94.86;95902.38;5080726;28;19924;-80
2023/03/18 04:25:06;;;;;;;;;;;;;;;7.78;96.14;95917.03;5091552;28;19931;-81
2023/03/18 04:27:33;;;;;;;;;;;;;;;7.69;97.09;95918.38;5101818;28;19934;-82
2023/03/18 04:30:07;;;;;;;;;;;;;;;7.64;98.83;95920.91;5085869;28;19924;-81
2023/03/18 04:32:40;;;;;;;;;;;;;;;7.67;98.99;95921.28;5089390;28;19936;-82
2023/03/18 04:35:07;;;;;;;;;;;;;;;7.71;99.37;95925.16;5083507;28;19924;-81
2023/03/18 04:37:36;;;;;;;;;;;;;;;7.74;98.67;95922.03;5084004;28;19970;-82
2023/03/18 04:40:05;;;;;;;;;;;;;;;7.77;98.43;95940.41;5094862;28;19925;-81
2023/03/18 04:42:31;;;;;;;;;;;;;;;7.72;98.42;95942.13;5088462;28;19928;-81
2023/03/18 04:44:58;;;;;;;;;;;;;;;7.64;99.34;95937.84;5096463;28;19924;-80
2023/03/18 04:47:26;;;;;;;;;;;;;;;7.58;99.70;95936.03;5089958;28;19992;-79
2023/03/18 04:49:53;;;;;;;;;;;;;;;7.57;100.00;95935.22;5086098;28;19928;-79
2023/03/18 04:52:20;;;;;;;;;;;;;;;7.57;99.72;95942.47;5089437;28;19929;-80
2023/03/18 04:54:47;;;;;;;;;;;;;;;7.50;100.00;95934.47;5089483;28;19925;-79
2023/03/18 04:57:15;;;;;;;;;;;;;;;7.42;99.60;95941.97;5083543;28;19925;-79
2023/03/18 04:59:48;;;;;;;;;;;;;;;7.40;100.00;95941.41;5100637;28;19963;-79
2023/03/18 05:02:15;;;;;;;;;;;;;;;7.41;99.91;95951.88;5084293;28;19924;-80
2023/03/18 05:04:43;;;;;;;;;;;;;;;7.31;100.00;95948.91;5076958;28;19930;-79
2023/03/18 05:07:12;;;;;;;;;;;;;;;7.23;100.00;95938.41;5082787;28;19924;-79
2023/03/18 05:09:40;;;;;;;;;;;;;;;7.22;100.00;95950.22;5097080;28;19940;-79
2023/03/18 05:12:12;;;;;;;;;;;;;;;7.17;100.00;95942.81;5094344;28;19924;-79
2023/03/18 05:14:39;;;;;;;;;;;;;;;7.20;100.00;95954.97;5081036;28;19924;-79
2023/03/18 05:17:06;;;;;;;;;;;;;;;7.19;100.00;95939.91;5100006;28;19925;-79
2023/03/18 05:19:36;;;;;;;;;;;;;;;7.19;100.00;95939.91;5077835;28;19931;-79
2023/03/18 05:22:14;;;;;;;;;;;;;;;7.19;100.00;95950.66;5088402;28;19978;-80
2023/03/18 05:24:41;;;;;;;;;;;;;;;7.17;100.00;95950.03;5089570;28;20007;-79
2023/03/18 05:27:09;;;;;;;;;;;;;;;7.10;100.00;95951.94;5098468;28;19981;-79
2023/03/18 05:29:40;;;;;;;;;;;;;;;6.95;100.00;95956.81;5101244;28;19925;-79
2023/03/18 05:32:18;;;;;;;;;;;;;;;6.88;100.00;95953.38;5096728;28;19925;-78
2023/03/18 05:34:51;;;;;;;;;;;;;;;6.88;100.00;95954.19;5086904;28;19924;-79
2023/03/18 05:37:19;;;;;;;;;;;;;;;6.83;100.00;95956.69;5087937;28;19932;-78
2023/03/18 05:39:56;;;;;;;;;;;;;;;6.76;100.00;95955.91;5104367;28;19973;-79
2023/03/18 05:42:24;;;;;;;;;;;;;;;6.74;100.00;95961.47;5082715;28;20134;-79
2023/03/18 05:44:51;;;;;;;;;;;;;;;6.67;100.00;95963.38;5074726;28;19924;-79
2023/03/18 05:47:21;;;;;;;;;;;;;;;6.65;100.00;95954.72;5090074;28;19928;-79
2023/03/18 05:50:01;;;;;;;;;;;;;;;6.63;100.00;95959.50;5072990;28;19936;-79
2023/03/18 05:52:29;;;;;;;;;;;;;;;6.66;100.00;95950.19;5092949;28;19924;-80
2023/03/18 05:55:01;;;;;;;;;;;;;;;6.71;100.00;95945.84;5090325;28;19970;-79
2023/03/18 05:57:33;;;;;;;;;;;;;;;6.74;100.00;95949.91;5088997;28;19925;-79
2023/03/18 06:00:04;;;;;;;;;;;;;;;6.66;100.00;95953.69;5082012;28;19970;-79
2023/03/18 06:02:42;;;;;;;;;;;;;;;6.70;100.00;95944.19;5084867;28;19924;-79
2023/03/18 06:05:09;;;;;;;;;;;;;;;6.75;100.00;95947.03;5093712;28;19973;-79
2023/03/18 06:07:38;;;;;;;;;;;;;;;6.75;100.00;95943.53;5094994;28;19996;-78
2023/03/18 06:10:05;;;;;;;;;;;;;;;6.72;100.00;95942.09;5097645;28;19930;-78
2023/03/18 06:12:32;;;;;;;;;;;;;;;6.67;100.00;95938.41;5100061;28;19924;-79
2023/03/18 06:14:59;;;;;;;;;;;;;;;6.69;100.00;95933.66;5089413;28;19985;-79
2023/03/18 06:17:26;;;;;;;;;;;;;;;6.75;100.00;95925.56;5090545;28;19930;-79
2023/03/18 06:19:53;;;;;;;;;;;;;;;6.81;100.00;95927.38;5085716;28;19946;-79
2023/03/18 06:22:21;;;;;;;;;;;;;;;6.68;100.00;95930.16;5088651;28;19924;-79
2023/03/18 06:24:49;;;;;;;;;;;;;;;6.62;100.00;95930.19;5089726;28;19946;-78
2023/03/18 06:27:18;;;;;;;;;;;;;;;6.67;100.00;95939.25;5092597;28;19928;-79
2023/03/18 06:29:49;;;;;;;;;;;;;;;6.75;100.00;95930.09;5097340;28;19935;-78
2023/03/18 06:32:18;;;;;;;;;;;;;;;6.89;100.00;95928.97;5103352;28;20026;-79
2023/03/18 06:34:45;;;;;;;;;;;;;;;6.83;100.00;95927.97;5090640;28;19931;-81
2023/03/18 06:37:11;;;;;;;;;;;;;;;6.86;100.00;95931.28;5088842;28;19939;-82
2023/03/18 06:39:38;;;;;;;;;;;;;;;6.83;100.00;95933.34;5079361;28;19961;-83
2023/03/18 06:42:10;;;;;;;;;;;;;;;6.84;100.00;95932.31;5084798;28;19925;-82
2023/03/18 06:44:49;;;;;;;;;;;;;;;6.86;100.00;95925.91;5081864;28;19961;-82
2023/03/18 06:47:21;;;;;;;;;;;;;;;6.88;100.00;95929.22;5082058;28;19962;-83
2023/03/18 06:49:56;;;;;;;;;;;;;;;6.91;99.71;95921.53;5076416;28;19924;-82
2023/03/18 06:52:29;;;;;;;;;;;;;;;7.04;98.49;95928.69;5082211;28;19970;-82
2023/03/18 06:55:01;;;;;;;;;;;;;;;7.13;97.33;95930.06;5084040;28;20015;-82
2023/03/18 06:57:29;;;;;;;;;;;;;;;7.19;96.34;95924.63;5086111;28;19924;-82
2023/03/18 06:59:57;;;;;;;;;;;;;;;7.29;95.43;95923.31;5095477;28;19924;-82
2023/03/18 07:02:24;;;;;;;;;;;;;;;7.32;95.13;95934.41;5092132;28;20023;-82
2023/03/18 07:04:54;;;;;;;;;;;;;;;7.38;93.17;95930.88;5088652;28;19928;-82
2023/03/18 07:07:21;;;;;;;;;;;;;;;7.41;94.25;95927.72;5084860;28;19953;-82
2023/03/18 07:09:48;;;;;;;;;;;;;;;7.42;96.16;95936.59;5075512;28;19925;-82
2023/03/18 07:12:15;;;;;;;;;;;;;;;7.35;96.79;95928.59;5094458;28;19956;-83
2023/03/18 07:14:44;;;;;;;;;;;;;;;7.34;97.96;95934.19;5099191;28;19928;-82
2023/03/18 07:17:11;;;;;;;;;;;;;;;7.36;98.40;95937.50;5087317;28;19955;-82
2023/03/18 07:19:39;;;;;;;;;;;;;;;7.36;99.28;95935.63;5096350;28;20010;-82
2023/03/18 07:22:06;;;;;;;;;;;;;;;7.38;98.93;95941.63;5086032;28;19932;-82
2023/03/18 07:24:33;;;;;;;;;;;;;;;7.39;96.63;95935.19;5088379;28;19924;-82
2023/03/18 07:27:00;;;;;;;;;;;;;;;7.39;96.46;95932.50;5077536;28;19928;-82
2023/03/18 07:29:26;;;;;;;;;;;;;;;7.44;96.56;95929.97;5088801;28;19924;-82
2023/03/18 07:31:57;;;;;;;;;;;;;;;7.43;96.52;95925.66;5077056;28;20280;-83
2023/03/18 07:34:24;;;;;;;;;;;;;;;7.40;97.75;95931.44;5075984;28;19928;-82
2023/03/18 07:36:50;;;;;;;;;;;;;;;7.40;98.37;95934.13;5088514;28;19931;-82
2023/03/18 07:39:17;;;;;;;;;;;;;;;7.34;99.59;95929.66;5079340;28;19959;-82
2023/03/18 07:41:44;;;;;;;;;;;;;;;7.34;99.89;95940.38;5095644;28;19932;-83
2023/03/18 07:44:20;;;;;;;;;;;;;;;7.31;99.71;95940.84;5083381;28;19925;-82
2023/03/18 07:46:47;;;;;;;;;;;;;;;7.24;100.00;95942.75;5086512;28;19935;-82
2023/03/18 07:49:15;;;;;;;;;;;;;;;7.22;100.00;95939.47;5083197;28;19928;-82
2023/03/18 07:51:41;;;;;;;;;;;;;;;7.21;100.00;95945.88;5091410;28;20015;-82
2023/03/18 07:54:08;;;;;;;;;;;;;;;7.23;100.00;95946.47;5077796;28;19932;-83
2023/03/18 07:56:35;;;;;;;;;;;;;;;7.26;100.00;95951.41;5075110;28;19932;-82
2023/03/18 07:59:01;;;;;;;;;;;;;;;7.30;100.00;95947.25;5074401;28;19981;-83
2023/03/18 08:01:28;;;;;;;;;;;;;;;7.34;100.00;95945.75;5091779;28;19924;-83
2023/03/18 08:03:55;;;;;;;;;;;;;;;7.36;100.00;95943.69;5086830;28;19956;-82
2023/03/18 08:06:24;;;;;;;;;;;;;;;7.34;100.00;95940.38;5085335;28;19924;-82
2023/03/18 08:08:50;;;;;;;;;;;;;;;7.30;100.00;95931.16;5080745;28;19925;-83
2023/03/18 08:11:17;;;;;;;;;;;;;;;7.28;100.00;95932.41;5085344;28;19932;-82
2023/03/18 08:13:44;;;;;;;;;;;;;;;7.28;100.00;95935.09;5079861;28;19930;-82
2023/03/18 08:16:11;;;;;;;;;;;;;;;7.23;100.00;95933.88;5084104;28;19924;-82
2023/03/18 08:18:37;;;;;;;;;;;;;;;7.19;100.00;95937.22;5093993;28;19928;-84
2023/03/18 08:21:04;;;;;;;;;;;;;;;7.21;100.00;95932.47;5079290;28;19992;-83
2023/03/18 08:23:32;;;;;;;;;;;;;;;7.27;100.00;95939.63;5078353;28;19924;-82
2023/03/18 08:25:59;;;;;;;;;;;;;;;7.34;100.00;95924.28;5081562;28;20025;-83
2023/03/18 08:28:26;;;;;;;;;;;;;;;7.38;100.00;95924.66;5086358;28;19924;-83
2023/03/18 08:30:56;;;;;;;;;;;;;;;7.40;100.00;95931.44;5087177;28;19988;-83
2023/03/18 08:33:23;;;;;;;;;;;;;;;7.62;100.00;95926.50;5090754;28;19974;-83
2023/03/18 08:35:50;;;;;;;;;;;;;;;7.90;100.00;95923.31;5093342;28;19932;-83
2023/03/18 08:38:18;;;;;;;;;;;;;;;8.19;100.00;95922.56;5082513;28;19924;-83
2023/03/18 08:40:46;;;;;;;;;;;;;;;8.50;100.00;95916.19;5094682;28;19952;-83
2023/03/18 08:43:13;;;;;;;;;;;;;;;8.69;98.39;95922.34;5083852;28;19932;-83
2023/03/18 08:45:40;;;;;;;;;;;;;;;8.94;94.43;95917.63;5077365;28;19939;-83
2023/03/18 08:48:07;;;;;;;;;;;;;;;9.22;93.67;95922.34;5084605;28;19924;-83
2023/03/18 08:50:34;;;;;;;;;;;;;;;9.51;90.78;95915.25;5081135;28;20030;-83
2023/03/18 08:53:02;;;;;;;;;;;;;;;9.77;87.81;95917.47;5089261;28;19931;-83
2023/03/18 08:55:30;;;;;;;;;;;;;;;9.99;84.47;95916.84;5091491;28;19928;-83
2023/03/18 08:57:58;;;;;;;;;;;;;;;10.23;82.44;95918.47;5096094;28;19931;-84
2023/03/18 09:00:25;;;;;;;;;;;;;;;10.48;80.45;95916.28;5086211;28;19928;-83
2023/03/18 09:02:53;;;;;;;;;;;;;;;10.80;80.30;95907.72;5094284;28;20016;-84
2023/03/18 09:05:19;;;;;;;;;;;;;;;11.08;74.94;95912.25;5089861;28;19993;-83
2023/03/18 09:07:46;;;;;;;;;;;;;;;11.33;70.59;95902.69;5083389;28;20027;-84
2023/03/18 09:10:13;;;;;;;;;;;;;;;11.62;67.76;95902.63;5087002;28;19932;-84
2023/03/18 09:12:41;;;;;;;;;;;;;;;11.89;66.04;95897.34;5084519;28;20029;-84
2023/03/18 09:15:10;;;;;;;;;;;;;;;12.15;63.61;95893.13;5089283;28;19924;-83
2023/03/18 09:17:39;;;;;;;;;;;;;;;12.30;60.37;95894.13;5095499;28;19924;-84
2023/03/18 09:20:06;;;;;;;;;;;;;;;12.50;58.61;95896.25;5090568;28;19929;-84
2023/03/18 09:22:33;;;;;;;;;;;;;;;12.67;56.63;95891.59;5082774;28;20010;-84
2023/03/18 09:24:59;;;;;;;;;;;;;;;12.81;56.41;95886.56;5074033;28;19978;-84
2023/03/18 09:27:27;;;;;;;;;;;;;;;12.96;52.28;95883.19;5098945;28;20014;-83
2023/03/18 09:29:55;;;;;;;;;;;;;;;13.05;54.60;95876.22;5094966;28;20042;-83
2023/03/18 09:32:23;;;;;;;;;;;;;;;13.22;56.89;95874.25;5075515;28;19924;-84
2023/03/18 09:34:50;;;;;;;;;;;;;;;13.43;55.12;95878.78;5094365;28;19932;-84
2023/03/18 09:37:17;;;;;;;;;;;;;;;13.64;54.89;95868.88;5088055;28;19924;-83
2023/03/18 09:39:44;;;;;;;;;;;;;;;13.76;51.13;95868.69;5090115;28;20012;-84
2023/03/18 09:42:17;;;;;;;;;;;;;;;13.96;49.76;95861.47;5083275;28;19924;-84
2023/03/18 09:44:44;;;;;;;;;;;;;;;14.14;49.91;95868.34;5096903;28;19924;-83
2023/03/18 09:47:24;;;;;;;;;;;;;;;14.31;48.60;95868.16;5077703;28;19931;-83
2023/03/18 09:49:59;;;;;;;;;;;;;;;14.42;48.88;95863.63;5102912;28;19928;-83
2023/03/18 09:52:29;;;;;;;;;;;;;;;14.50;50.52;95865.81;5095766;28;19932;-83
2023/03/18 09:54:58;;;;;;;;;;;;;;;14.50;52.10;95861.19;5090044;28;19932;-83
2023/03/18 09:57:26;;;;;;;;;;;;;;;14.53;52.40;95860.69;5084411;28;20007;-83
2023/03/18 09:59:57;;;;;;;;;;;;;;;14.66;54.80;95857.44;5077925;28;19924;-83
2023/03/18 10:02:32;;;;;;;;;;;;;;;14.85;56.44;95857.75;5075727;28;19925;-83
2023/03/18 10:05:02;;;;;;;;;;;;;;;15.11;54.84;95856.72;5089640;28;19925;-83
2023/03/18 10:07:31;;;;;;;;;;;;;;;15.05;54.65;95852.38;5100272;28;19981;-83
2023/03/18 10:10:01;;;;;;;;;;;;;;;15.21;54.98;95849.66;5097530;28;19924;-83
2023/03/18 10:12:31;;;;;;;;;;;;;;;15.40;54.58;95853.44;5078131;28;19932;-83
2023/03/18 10:15:04;;;;;;;;;;;;;;;15.40;57.13;95851.53;5094142;28;19935;-83
2023/03/18 10:17:33;;;;;;;;;;;;;;;15.61;55.92;95855.13;5080165;28;19932;-84
2023/03/18 10:20:03;;;;;;;;;;;;;;;15.62;55.09;95856.75;5074061;28;19932;-83
2023/03/18 10:22:47;;;;;;;;;;;;;;;15.67;52.48;95854.00;5077880;28;19968;-83
2023/03/18 10:25:16;;;;;;;;;;;;;;;15.77;52.06;95847.72;5067381;28;19928;-84
2023/03/18 10:27:49;;;;;;;;;;;;;;;15.91;50.92;95843.34;5084918;28;19928;-84
2023/03/18 10:30:26;;;;;;;;;;;;;;;15.84;50.97;95849.06;5074488;28;19933;-84
2023/03/18 10:32:58;;;;;;;;;;;;;;;15.88;51.61;95844.72;5076323;28;20032;-84
2023/03/18 10:35:31;;;;;;;;;;;;;;;15.95;51.55;95852.59;5077655;28;19968;-84
2023/03/18 10:38:03;;;;;;;;;;;;;;;16.07;51.23;95844.16;5090144;28;20015;-84
2023/03/18 10:40:32;;;;;;;;;;;;;;;16.13;49.52;95840.31;5092120;28;19924;-84
2023/03/18 10:42:59;;;;;;;;;;;;;;;16.29;48.83;95830.97;5084635;28;19932;-83
2023/03/18 10:45:27;;;;;;;;;;;;;;;16.30;48.67;95843.50;5077332;28;19924;-84
2023/03/18 10:47:59;;;;;;;;;;;;;;;16.27;47.19;95842.16;5086939;28;19935;-83
2023/03/18 10:50:32;;;;;;;;;;;;;;;16.16;48.26;95828.88;5076012;28;19930;-84
2023/03/18 10:53:02;;;;;;;;;;;;;;;16.39;45.92;95832.84;5071318;28;19924;-84
2023/03/18 10:55:31;;;;;;;;;;;;;;;16.38;46.05;95832.03;5081955;28;19924;-83
2023/03/18 10:57:58;;;;;;;;;;;;;;;16.50;45.75;95837.94;5087916;28;19924;-83
2023/03/18 11:00:29;;;;;;;;;;;;;;;16.69;45.24;95837.34;5084340;28;19924;-84
2023/03/18 11:02:56;;;;;;;;;;;;;;;16.81;44.92;95835.94;5077084;28;19967;-83
2023/03/18 11:05:25;;;;;;;;;;;;;;;16.99;46.48;95832.53;5105891;28;20022;-84
2023/03/18 11:07:57;;;;;;;;;;;;;;;17.05;47.07;95830.59;5093748;28;20018;-84
2023/03/18 11:10:27;;;;;;;;;;;;;;;17.10;46.26;95835.22;5090753;28;20023;-89
2023/03/18 11:13:01;;;;;;;;;;;;;;;17.03;47.58;95833.59;5095886;28;19924;-87
2023/03/18 11:15:37;;;;;;;;;;;;;;;16.78;46.68;95831.03;5082336;28;19932;-88
2023/03/18 11:18:04;;;;;;;;;;;;;;;16.78;46.91;95830.22;5089440;28;19932;-87
2023/03/18 11:20:36;;;;;;;;;;;;;;;16.78;48.29;95841.13;5081084;28;19931;-87
2023/03/18 11:23:11;;;;;;;;;;;;;;;17.03;49.54;95838.22;5073054;28;19924;-87
2023/03/18 11:25:39;;;;;;;;;;;;;;;17.21;48.18;95843.00;5070613;28;19928;-87
2023/03/18 11:28:17;;;;;;;;;;;;;;;17.29;48.45;95831.50;5080549;28;19924;-86
2023/03/18 11:30:47;;;;;;;;;;;;;;;17.59;48.18;95838.63;5081808;28;20014;-83
2023/03/18 11:33:14;;;;;;;;;;;;;;;17.69;46.43;95832.28;5090872;28;19931;-84
2023/03/18 11:35:44;;;;;;;;;;;;;;;17.70;46.54;95826.50;5083889;28;19928;-83
2023/03/18 11:38:17;;;;;;;;;;;;;;;17.55;47.73;95829.38;5078016;28;19929;-84
2023/03/18 11:40:45;;;;;;;;;;;;;;;17.51;45.88;95822.03;5082378;28;19928;-84
2023/03/18 11:43:17;;;;;;;;;;;;;;;17.34;45.76;95812.38;5091909;28;19974;-83
2023/03/18 11:45:48;;;;;;;;;;;;;;;17.49;46.91;95810.59;5092280;28;19967;-83
2023/03/18 11:48:17;;;;;;;;;;;;;;;17.84;46.10;95799.34;5087860;28;19974;-83
2023/03/18 11:50:50;;;;;;;;;;;;;;;17.98;45.07;95788.53;5090920;28;19936;-84
2023/03/18 11:53:24;;;;;;;;;;;;;;;18.14;45.17;95790.81;5071549;28;19934;-83
2023/03/18 11:55:52;;;;;;;;;;;;;;;18.24;44.94;95786.34;5079426;28;19929;-83
2023/03/18 11:58:32;;;;;;;;;;;;;;;18.20;44.71;95779.84;5080482;28;19964;-84
2023/03/18 12:01:03;;;;;;;;;;;;;;;18.35;44.04;95769.53;5082920;28;19989;-84
2023/03/18 12:03:51;;;;;;;;;;;;;;;17.73;45.46;95757.69;5078766;28;19924;-83
2023/03/18 12:06:20;;;;;;;;;;;;;;;18.28;45.18;95758.13;5085381;28;19934;-83
2023/03/18 12:08:51;;;;;;;;;;;;;;;18.49;43.17;95758.66;5078756;28;20023;-83
2023/03/18 12:11:23;;;;;;;;;;;;;;;18.44;42.65;95759.56;5092234;28;19947;-84
2023/03/18 12:13:56;;;;;;;;;;;;;;;18.56;43.10;95755.56;5107386;27;19946;-84
2023/03/18 12:16:31;;;;;;;;;;;;;;;18.59;43.73;95755.81;5087133;28;19932;-83
2023/03/18 12:19:09;;;;;;;;;;;;;;;18.59;43.84;95758.56;5087954;28;19979;-83
2023/03/18 12:21:53;;;;;;;;;;;;;;;18.78;43.15;95751.19;5090047;28;19935;-83
2023/03/18 12:24:29;;;;;;;;;;;;;;;18.98;41.09;95738.28;5083356;28;19971;-84
2023/03/18 12:27:03;;;;;;;;;;;;;;;19.02;40.95;95731.91;5075765;28;19939;-84
2023/03/18 12:29:47;;;;;;;;;;;;;;;19.04;41.11;95724.22;5079026;28;20020;-84
2023/03/18 12:32:24;;;;;;;;;;;;;;;19.28;40.64;95735.03;5101141;28;19924;-84
2023/03/18 12:35:01;;;;;;;;;;;;;;;19.10;40.67;95722.22;5083270;28;19924;-83
2023/03/18 12:37:34;;;;;;;;;;;;;;;19.19;40.69;95720.41;5090413;28;19990;-83
2023/03/18 12:40:14;;;;;;;;;;;;;;;19.05;42.19;95708.63;5088434;28;19928;-83
2023/03/18 12:42:58;;;;;;;;;;;;;;;19.17;42.18;95712.50;5077446;28;20020;-83
2023/03/18 12:45:26;;;;;;;;;;;;;;;19.31;40.79;95703.53;5077387;28;19931;-83
2023/03/18 12:47:56;;;;;;;;;;;;;;;19.37;39.63;95707.78;5108114;28;19924;-83
2023/03/18 12:50:25;;;;;;;;;;;;;;;19.47;40.27;95704.88;5079125;28;19931;-84
2023/03/18 12:52:55;;;;;;;;;;;;;;;19.51;41.29;95709.47;5084990;28;19925;-83
2023/03/18 12:55:26;;;;;;;;;;;;;;;19.43;41.97;95712.88;5078576;28;20011;-84
2023/03/18 12:57:56;;;;;;;;;;;;;;;19.53;41.06;95715.47;5092538;28;19930;-83
2023/03/18 13:00:27;;;;;;;;;;;;;;;19.33;40.71;95715.78;5076971;28;19924;-83